createdAt,value
2022-10-07T00:02:02.780Z,5.57
2022-10-07T00:04:29.033Z,6.55
2022-10-07T00:06:55.287Z,6.93
2022-10-07T00:09:21.583Z,6.07
2022-10-07T00:11:47.847Z,7.43
2022-10-07T00:14:14.122Z,6.15
2022-10-07T00:16:41.037Z,6.43
2022-10-07T00:19:10.136Z,6.60
2022-10-07T00:21:37.522Z,6.55
2022-10-07T00:24:04.723Z,7.00
2022-10-07T00:26:32.454Z,5.78
2022-10-07T00:28:58.969Z,7.28
2022-10-07T00:31:26.313Z,5.75
2022-10-07T00:33:52.958Z,6.70
2022-10-07T00:36:23.649Z,6.40
2022-10-07T00:38:50.939Z,5.90
2022-10-07T00:41:19.204Z,5.90
2022-10-07T00:43:46.688Z,5.50
2022-10-07T00:46:33.730Z,5.93
2022-10-07T00:49:01.848Z,5.85
2022-10-07T00:51:29.058Z,6.40
2022-10-07T00:53:56.281Z,6.35
2022-10-07T00:56:24.152Z,6.15
2022-10-07T00:58:50.420Z,5.78
2022-10-07T01:01:20.057Z,6.72
2022-10-07T01:03:49.476Z,7.30
2022-10-07T01:06:15.830Z,6.18
2022-10-07T01:08:42.491Z,7.05
2022-10-07T01:11:16.424Z,6.32
2022-10-07T01:14:01.967Z,6.15
2022-10-07T01:16:42.976Z,6.30
2022-10-07T01:19:10.598Z,6.18
2022-10-07T01:21:52.153Z,6.03
2022-10-07T01:24:33.181Z,6.10
2022-10-07T01:27:12.807Z,7.38
2022-10-07T01:29:45.747Z,7.35
2022-10-07T01:32:14.862Z,6.90
2022-10-07T01:34:42.156Z,6.80
2022-10-07T01:37:09.870Z,6.30
2022-10-07T01:39:38.718Z,7.45
2022-10-07T01:42:05.117Z,6.60
2022-10-07T01:44:31.580Z,6.60
2022-10-07T01:46:58.330Z,6.43
2022-10-07T01:49:24.641Z,6.32
2022-10-07T01:52:11.695Z,6.75
2022-10-07T01:54:38.796Z,6.35
2022-10-07T01:57:24.951Z,6.82
2022-10-07T01:59:51.201Z,6.63
2022-10-07T02:02:28.152Z,6.18
2022-10-07T02:05:01.568Z,7.32
2022-10-07T02:07:33.778Z,6.63
2022-10-07T02:10:06.366Z,7.07
2022-10-07T02:12:32.647Z,6.40
2022-10-07T02:15:20.031Z,6.45
2022-10-07T02:17:48.837Z,6.05
2022-10-07T02:20:16.321Z,5.15
2022-10-07T02:22:43.476Z,6.40
2022-10-07T02:25:10.290Z,6.35
2022-10-07T02:27:38.422Z,7.95
2022-10-07T02:30:07.852Z,6.53
2022-10-07T02:32:34.723Z,6.57
2022-10-07T02:35:04.743Z,7.10
2022-10-07T02:37:32.851Z,7.00
2022-10-07T02:39:59.228Z,6.20
2022-10-07T02:42:35.396Z,5.65
2022-10-07T02:45:18.243Z,6.00
2022-10-07T02:48:04.110Z,6.03
2022-10-07T02:50:34.660Z,5.45
2022-10-07T02:53:01.884Z,5.85
2022-10-07T02:55:29.155Z,5.45
2022-10-07T02:57:58.243Z,5.70
2022-10-07T03:00:24.652Z,8.02
2022-10-07T03:02:55.298Z,7.07
2022-10-07T03:05:22.436Z,9.35
2022-10-07T03:07:49.715Z,5.68
2022-10-07T03:10:16.166Z,6.03
2022-10-07T03:12:42.639Z,5.35
2022-10-07T03:15:11.016Z,6.28
2022-10-07T03:17:37.855Z,6.25
2022-10-07T03:20:04.244Z,6.07
2022-10-07T03:22:30.517Z,5.68
2022-10-07T03:24:56.788Z,4.47
2022-10-07T03:27:23.065Z,6.07
2022-10-07T03:29:50.156Z,6.28
2022-10-07T03:32:16.424Z,5.90
2022-10-07T03:34:42.684Z,5.68
2022-10-07T03:37:08.976Z,7.22
2022-10-07T03:39:35.288Z,6.03
2022-10-07T03:42:01.560Z,5.40
2022-10-07T03:44:27.835Z,6.25
2022-10-07T03:46:54.232Z,4.70
2022-10-07T03:49:20.640Z,5.72
2022-10-07T03:51:47.610Z,5.85
2022-10-07T03:54:13.995Z,5.47
2022-10-07T03:56:40.282Z,6.20
2022-10-07T03:59:06.532Z,5.88
2022-10-07T04:01:32.890Z,4.70
2022-10-07T04:04:00.391Z,5.78
2022-10-07T04:06:27.410Z,6.10
2022-10-07T04:08:55.170Z,4.88
2022-10-07T04:11:21.987Z,5.13
2022-10-07T04:13:48.358Z,5.32
2022-10-07T04:16:14.678Z,4.75
2022-10-07T04:18:41.906Z,4.75
2022-10-07T04:21:08.638Z,5.82
2022-10-07T04:23:35.474Z,6.70
2022-10-07T04:26:01.854Z,5.40
2022-10-07T04:28:28.235Z,5.28
2022-10-07T04:30:54.523Z,4.70
2022-10-07T04:33:21.803Z,5.88
2022-10-07T04:35:49.687Z,6.18
2022-10-07T04:38:16.889Z,5.68
2022-10-07T04:40:44.277Z,5.55
2022-10-07T04:43:20.402Z,5.55
2022-10-07T04:45:47.550Z,5.45
2022-10-07T04:48:17.343Z,5.05
2022-10-07T04:50:43.841Z,4.70
2022-10-07T04:53:10.984Z,5.38
2022-10-07T04:55:41.904Z,5.32
2022-10-07T04:58:08.579Z,7.03
2022-10-07T05:00:35.858Z,6.43
2022-10-07T05:03:03.263Z,4.75
2022-10-07T05:05:29.534Z,4.65
2022-10-07T05:07:55.826Z,4.47
2022-10-07T05:10:22.097Z,5.68
2022-10-07T05:12:50.495Z,5.82
2022-10-07T05:15:20.312Z,4.82
2022-10-07T05:17:46.968Z,4.93
2022-10-07T05:20:13.551Z,6.15
2022-10-07T05:22:39.795Z,5.50
2022-10-07T05:25:06.335Z,4.72
2022-10-07T05:27:32.602Z,5.20
2022-10-07T05:29:58.852Z,6.13
2022-10-07T05:32:25.857Z,6.00
2022-10-07T05:34:52.652Z,6.10
2022-10-07T05:37:18.926Z,6.03
2022-10-07T05:39:45.301Z,6.70
2022-10-07T05:42:13.337Z,6.95
2022-10-07T05:44:39.786Z,7.20
2022-10-07T05:47:06.099Z,5.57
2022-10-07T05:49:32.700Z,5.53
2022-10-07T05:51:58.976Z,5.85
2022-10-07T05:54:25.223Z,7.10
2022-10-07T05:56:51.567Z,6.00
2022-10-07T05:59:17.831Z,6.05
2022-10-07T06:01:44.149Z,7.22
2022-10-07T06:04:11.133Z,8.10
2022-10-07T06:06:38.526Z,7.25
2022-10-07T06:09:23.642Z,10.18
2022-10-07T06:12:08.566Z,6.68
2022-10-07T06:14:34.819Z,7.45
2022-10-07T06:17:01.161Z,7.63
2022-10-07T06:19:27.471Z,7.25
2022-10-07T06:21:53.719Z,7.55
2022-10-07T06:24:20.207Z,6.68
2022-10-07T06:26:46.462Z,7.25
2022-10-07T06:29:13.128Z,6.63
2022-10-07T06:31:39.510Z,8.20
2022-10-07T06:34:05.755Z,6.18
2022-10-07T06:36:32.012Z,6.50
2022-10-07T06:38:58.288Z,7.13
2022-10-07T06:41:24.721Z,8.60
2022-10-07T06:43:54.432Z,6.90
2022-10-07T06:46:20.742Z,7.57
2022-10-07T06:48:47.190Z,7.20
2022-10-07T06:51:15.236Z,6.88
2022-10-07T06:53:41.710Z,6.88
2022-10-07T06:56:08.820Z,7.10
2022-10-07T06:58:35.450Z,6.10
2022-10-07T07:01:01.820Z,6.32
2022-10-07T07:03:28.194Z,6.88
2022-10-07T07:05:55.071Z,7.38
2022-10-07T07:08:31.817Z,7.40
2022-10-07T07:11:28.269Z,6.45
2022-10-07T07:13:54.745Z,7.18
2022-10-07T07:16:21.509Z,6.95
2022-10-07T07:18:55.330Z,6.05
2022-10-07T07:21:21.718Z,6.88
2022-10-07T07:23:48.258Z,6.95
2022-10-07T07:26:14.543Z,6.90
2022-10-07T07:28:41.208Z,6.05
2022-10-07T07:31:09.404Z,5.63
2022-10-07T07:33:38.320Z,6.38
2022-10-07T07:36:15.894Z,6.68
2022-10-07T07:38:42.869Z,5.32
2022-10-07T07:41:09.955Z,6.10
2022-10-07T07:43:36.579Z,4.38
2022-10-07T07:46:02.845Z,5.63
2022-10-07T07:48:30.518Z,5.15
2022-10-07T07:50:57.219Z,5.70
2022-10-07T07:53:23.503Z,5.22
2022-10-07T07:55:55.876Z,5.55
2022-10-07T07:58:22.881Z,5.75
2022-10-07T08:00:59.474Z,5.40
2022-10-07T08:03:26.507Z,6.22
2022-10-07T08:05:53.244Z,5.97
2022-10-07T08:08:19.521Z,5.55
2022-10-07T08:10:51.008Z,4.57
2022-10-07T08:13:18.243Z,4.38
2022-10-07T08:15:44.567Z,4.63
2022-10-07T08:18:10.856Z,5.60
2022-10-07T08:20:37.138Z,4.80
2022-10-07T08:23:06.742Z,6.25
2022-10-07T08:25:33.057Z,5.05
2022-10-07T08:27:59.753Z,5.40
2022-10-07T08:30:26.092Z,5.47
2022-10-07T08:32:53.646Z,4.40
2022-10-07T08:35:22.030Z,4.47
2022-10-07T08:37:48.585Z,5.13
2022-10-07T08:40:18.659Z,5.28
2022-10-07T08:42:46.149Z,4.13
2022-10-07T08:45:22.352Z,4.57
2022-10-07T08:47:50.633Z,4.93
2022-10-07T08:50:20.340Z,5.50
2022-10-07T08:52:50.880Z,4.85
2022-10-07T08:55:20.060Z,4.95
2022-10-07T08:57:46.583Z,3.70
2022-10-07T09:00:17.491Z,4.47
2022-10-07T09:03:25.222Z,3.92
2022-10-07T09:05:52.448Z,3.83
2022-10-07T09:08:30.474Z,3.78
2022-10-07T09:11:01.603Z,3.85
2022-10-07T09:13:32.386Z,3.83
2022-10-07T09:16:03.919Z,4.10
2022-10-07T09:18:33.963Z,3.80
2022-10-07T09:21:03.489Z,5.00
2022-10-07T09:23:31.580Z,3.38
2022-10-07T09:25:58.069Z,3.67
2022-10-07T09:28:33.453Z,4.43
2022-10-07T09:31:00.503Z,4.60
2022-10-07T09:33:29.744Z,3.45
2022-10-07T09:35:58.096Z,4.13
2022-10-07T09:38:37.766Z,3.80
2022-10-07T09:41:22.700Z,3.38
2022-10-07T09:44:20.213Z,3.22
2022-10-07T09:46:52.305Z,4.03
2022-10-07T09:49:27.516Z,3.83
2022-10-07T09:52:07.258Z,4.13
2022-10-07T09:54:35.130Z,3.88
2022-10-07T09:57:04.408Z,3.30
2022-10-07T09:59:33.380Z,4.32
2022-10-07T10:02:02.294Z,2.90
2022-10-07T10:04:35.416Z,3.08
2022-10-07T10:07:27.826Z,3.15
2022-10-07T10:09:55.456Z,3.28
2022-10-07T10:12:22.532Z,3.10
2022-10-07T10:14:50.765Z,3.65
2022-10-07T10:17:30.946Z,4.65
2022-10-07T10:20:17.188Z,3.45
2022-10-07T10:22:43.767Z,3.38
2022-10-07T10:25:29.279Z,3.90
2022-10-07T10:28:06.750Z,3.53
2022-10-07T10:30:35.906Z,3.97
2022-10-07T10:33:12.112Z,4.13
2022-10-07T10:35:53.687Z,3.58
2022-10-07T10:38:25.959Z,3.67
2022-10-07T10:40:55.026Z,4.03
2022-10-07T10:43:21.914Z,3.53
2022-10-07T10:45:48.175Z,3.30
2022-10-07T10:48:37.142Z,3.83
2022-10-07T10:51:25.491Z,3.47
2022-10-07T10:54:10.366Z,5.18
2022-10-07T10:56:41.317Z,5.18
2022-10-07T10:59:15.843Z,3.35
2022-10-07T11:01:43.277Z,2.88
2022-10-07T11:04:31.108Z,3.20
2022-10-07T11:07:00.318Z,3.40
2022-10-07T11:09:49.883Z,3.42
2022-10-07T11:12:27.704Z,4.13
2022-10-07T11:14:58.851Z,3.30
2022-10-07T11:17:30.170Z,3.15
2022-10-07T11:20:16.692Z,5.60
2022-10-07T11:22:47.402Z,3.40
2022-10-07T11:25:23.854Z,3.92
2022-10-07T11:27:50.769Z,3.72
2022-10-07T11:30:22.085Z,3.70
2022-10-07T11:32:57.591Z,3.17
2022-10-07T11:35:32.026Z,3.78
2022-10-07T11:37:58.564Z,3.60
2022-10-07T11:40:29.046Z,2.83
2022-10-07T11:42:57.661Z,3.47
2022-10-07T11:45:26.571Z,3.20
2022-10-07T11:47:55.698Z,3.60
2022-10-07T11:50:31.364Z,3.30
2022-10-07T11:53:02.147Z,2.60
2022-10-07T11:55:39.584Z,3.40
2022-10-07T11:58:06.255Z,2.67
2022-10-07T12:00:32.502Z,3.10
2022-10-07T12:03:11.485Z,3.13
2022-10-07T12:05:37.769Z,3.65
2022-10-07T12:08:23.146Z,3.92
2022-10-07T12:10:55.833Z,4.03
2022-10-07T12:13:22.059Z,3.83
2022-10-07T12:15:51.491Z,4.00
2022-10-07T12:18:24.095Z,2.90
2022-10-07T12:20:50.349Z,3.78
2022-10-07T12:23:19.649Z,4.18
2022-10-07T12:25:49.868Z,3.28
2022-10-07T12:28:31.266Z,3.33
2022-10-07T12:31:01.584Z,3.40
2022-10-07T12:33:46.284Z,4.00
2022-10-07T12:36:18.366Z,4.30
2022-10-07T12:38:56.799Z,3.30
2022-10-07T12:41:43.771Z,3.72
2022-10-07T12:44:28.771Z,5.13
2022-10-07T12:47:00.796Z,3.38
2022-10-07T12:49:37.989Z,3.75
2022-10-07T12:52:06.231Z,3.63
2022-10-07T12:54:34.656Z,2.58
2022-10-07T12:57:01.990Z,3.58
2022-10-07T13:00:03.723Z,2.85
2022-10-07T13:02:36.067Z,3.65
2022-10-07T13:05:17.297Z,3.08
2022-10-07T13:08:01.679Z,3.90
2022-10-07T13:10:43.462Z,4.15
2022-10-07T13:13:29.063Z,3.75
2022-10-07T13:18:27.499Z,4.15
2022-10-07T13:21:02.634Z,3.97
2022-10-07T13:25:56.131Z,2.75
2022-10-07T13:28:24.991Z,3.42
2022-10-07T13:30:52.432Z,3.70
2022-10-07T13:33:30.233Z,4.70
2022-10-07T13:36:25.829Z,3.92
2022-10-07T13:38:53.700Z,3.72
2022-10-07T13:41:27.412Z,3.83
2022-10-07T13:43:59.287Z,3.90
2022-10-07T13:46:27.025Z,3.58
2022-10-07T13:48:56.238Z,3.63
2022-10-07T13:51:40.980Z,4.20
2022-10-07T13:54:15.312Z,3.45
2022-10-07T13:56:42.172Z,4.80
2022-10-07T13:59:11.982Z,4.82
2022-10-07T14:01:39.810Z,4.03
2022-10-07T14:04:09.044Z,3.35
2022-10-07T14:06:37.322Z,3.67
2022-10-07T14:09:03.600Z,3.10
2022-10-07T14:11:30.757Z,3.28
2022-10-07T14:13:59.399Z,5.30
2022-10-07T14:16:26.001Z,3.60
2022-10-07T14:18:52.695Z,3.30
2022-10-07T14:21:19.032Z,3.53
2022-10-07T14:23:48.794Z,4.22
2022-10-07T14:26:16.432Z,3.55
2022-10-07T14:28:43.253Z,3.00
2022-10-07T14:31:28.256Z,3.63
2022-10-07T14:34:17.860Z,3.40
2022-10-07T14:37:19.550Z,3.13
2022-10-07T14:39:50.180Z,3.35
2022-10-07T14:42:16.496Z,3.22
2022-10-07T14:44:43.887Z,3.78
2022-10-07T14:47:14.434Z,2.85
2022-10-07T14:49:44.417Z,3.78
2022-10-07T14:52:17.987Z,3.88
2022-10-07T14:54:44.411Z,3.42
2022-10-07T14:57:10.675Z,3.53
2022-10-07T14:59:37.802Z,2.85
2022-10-07T15:02:04.080Z,3.80
2022-10-07T15:04:30.504Z,2.83
2022-10-07T15:06:57.986Z,3.30
2022-10-07T15:09:24.236Z,2.72
2022-10-07T15:11:51.122Z,3.10
2022-10-07T15:14:17.414Z,3.60
2022-10-07T15:16:43.718Z,4.32
2022-10-07T15:19:10.066Z,3.95
2022-10-07T15:21:36.515Z,3.40
2022-10-07T15:24:02.815Z,2.92
2022-10-07T15:26:29.571Z,2.50
2022-10-07T15:28:56.850Z,2.60
2022-10-07T15:31:24.538Z,2.83
2022-10-07T15:33:50.888Z,2.70
2022-10-07T15:36:17.833Z,2.60
2022-10-07T15:38:44.183Z,2.42
2022-10-07T15:41:15.723Z,2.72
2022-10-07T15:43:41.963Z,2.53
2022-10-07T15:46:08.247Z,2.95
2022-10-07T15:48:34.557Z,2.33
2022-10-07T15:51:00.853Z,2.55
2022-10-07T15:53:27.092Z,2.38
2022-10-07T15:55:54.562Z,2.53
2022-10-07T15:58:21.431Z,3.00
2022-10-07T16:00:56.775Z,2.63
2022-10-07T16:03:23.202Z,2.70
2022-10-07T16:05:56.773Z,3.03
2022-10-07T16:08:23.043Z,2.47
2022-10-07T16:10:49.309Z,2.80
2022-10-07T16:13:15.562Z,2.35
2022-10-07T16:15:42.507Z,2.67
2022-10-07T16:18:08.815Z,2.83
2022-10-07T16:20:41.223Z,2.92
2022-10-07T16:23:07.527Z,2.70
2022-10-07T16:25:35.165Z,3.00
2022-10-07T16:28:20.059Z,2.40
2022-10-07T16:30:51.042Z,2.33
2022-10-07T16:33:18.905Z,2.55
2022-10-07T16:35:45.226Z,2.85
2022-10-07T16:38:11.467Z,2.50
2022-10-07T16:40:38.033Z,2.78
2022-10-07T16:43:04.295Z,3.22
2022-10-07T16:45:30.567Z,2.53
2022-10-07T16:47:56.906Z,3.45
2022-10-07T16:50:23.182Z,2.60
2022-10-07T16:52:49.520Z,2.90
2022-10-07T16:55:15.780Z,2.83
2022-10-07T16:57:42.091Z,2.97
2022-10-07T17:00:08.646Z,3.72
2022-10-07T17:02:35.776Z,3.13
2022-10-07T17:05:02.377Z,3.47
2022-10-07T17:07:28.652Z,2.75
2022-10-07T17:09:54.903Z,3.30
2022-10-07T17:12:21.779Z,3.15
2022-10-07T17:14:48.057Z,3.83
2022-10-07T17:17:14.367Z,3.50
2022-10-07T17:19:40.602Z,4.30
2022-10-07T17:22:06.881Z,3.42
2022-10-07T17:24:33.126Z,4.80
2022-10-07T17:26:59.400Z,4.28
2022-10-07T17:29:26.233Z,3.97
2022-10-07T17:31:52.834Z,3.67
2022-10-07T17:34:20.374Z,3.28
2022-10-07T17:36:47.758Z,4.25
2022-10-07T17:39:14.058Z,3.97
2022-10-07T17:41:40.352Z,4.20
2022-10-07T17:44:11.504Z,4.32
2022-10-07T17:46:39.118Z,3.28
2022-10-07T17:49:06.795Z,3.63
2022-10-07T17:51:33.149Z,3.50
2022-10-07T17:54:00.196Z,5.53
2022-10-07T17:56:27.275Z,3.58
2022-10-07T17:58:53.614Z,4.10
2022-10-07T18:01:29.716Z,3.63
2022-10-07T18:04:00.035Z,3.15
2022-10-07T18:06:27.301Z,4.60
2022-10-07T18:08:53.575Z,5.32
2022-10-07T18:11:19.888Z,5.18
2022-10-07T18:14:05.040Z,5.38
2022-10-07T18:16:34.969Z,5.03
2022-10-07T18:19:01.566Z,6.63
2022-10-07T18:21:29.795Z,7.22
2022-10-07T18:23:57.455Z,5.30
2022-10-07T18:26:24.452Z,5.25
2022-10-07T18:28:50.812Z,4.68
2022-10-07T18:31:17.792Z,3.70
2022-10-07T18:33:44.767Z,3.80
2022-10-07T18:36:12.465Z,4.07
2022-10-07T18:38:40.664Z,6.03
2022-10-07T18:41:08.735Z,7.13
2022-10-07T18:43:35.093Z,6.35
2022-10-07T18:46:01.479Z,6.03
2022-10-07T18:48:31.155Z,6.60
2022-10-07T18:50:57.475Z,8.20
2022-10-07T18:53:23.724Z,6.07
2022-10-07T18:55:50.080Z,5.43
2022-10-07T18:58:16.351Z,5.20
2022-10-07T19:00:42.847Z,4.97
2022-10-07T19:03:09.483Z,4.57
2022-10-07T19:05:36.876Z,3.83
2022-10-07T19:08:03.544Z,4.32
2022-10-07T19:10:29.822Z,4.38
2022-10-07T19:13:18.494Z,4.30
2022-10-07T19:15:46.914Z,5.53
2022-10-07T19:18:13.229Z,4.35
2022-10-07T19:20:42.357Z,3.50
2022-10-07T19:23:11.015Z,4.80
2022-10-07T19:25:46.407Z,4.22
2022-10-07T19:28:12.731Z,3.95
2022-10-07T19:30:40.129Z,4.72
2022-10-07T19:33:06.371Z,4.55
2022-10-07T19:35:33.962Z,3.83
2022-10-07T19:38:00.610Z,4.47
2022-10-07T19:40:26.904Z,4.65
2022-10-07T19:42:53.223Z,4.22
2022-10-07T19:45:21.756Z,4.95
2022-10-07T19:47:49.208Z,5.30
2022-10-07T19:50:15.704Z,4.30
2022-10-07T19:52:42.418Z,4.95
2022-10-07T19:55:08.891Z,6.43
2022-10-07T19:57:35.485Z,4.43
2022-10-07T20:00:01.748Z,4.93
2022-10-07T20:02:28.186Z,4.20
2022-10-07T20:04:54.483Z,4.78
2022-10-07T20:07:20.824Z,4.05
2022-10-07T20:09:47.160Z,4.63
2022-10-07T20:12:13.942Z,4.82
2022-10-07T20:14:40.304Z,4.82
2022-10-07T20:17:06.593Z,3.80
2022-10-07T20:19:32.868Z,4.97
2022-10-07T20:22:01.089Z,4.03
2022-10-07T20:24:27.423Z,4.32
2022-10-07T20:26:53.677Z,4.78
2022-10-07T20:29:25.374Z,5.32
2022-10-07T20:31:52.485Z,5.13
2022-10-07T20:34:20.003Z,4.25
2022-10-07T20:36:46.345Z,3.78
2022-10-07T20:39:38.612Z,4.45
2022-10-07T20:42:25.964Z,3.88
2022-10-07T20:44:52.771Z,5.13
2022-10-07T20:47:19.551Z,3.47
2022-10-07T20:49:48.053Z,5.82
2022-10-07T20:52:16.722Z,4.15
2022-10-07T20:54:43.553Z,5.43
2022-10-07T20:57:11.899Z,5.07
2022-10-07T20:59:38.838Z,4.13
2022-10-07T21:02:09.389Z,4.13
2022-10-07T21:04:36.083Z,4.13
2022-10-07T21:07:02.381Z,5.60
2022-10-07T21:09:28.711Z,4.15
2022-10-07T21:11:56.621Z,4.25
2022-10-07T21:14:23.249Z,4.65
2022-10-07T21:16:49.737Z,4.82
2022-10-07T21:19:17.017Z,5.05
2022-10-07T21:21:43.324Z,4.45
2022-10-07T21:24:10.079Z,4.97
2022-10-07T21:26:36.842Z,3.83
2022-10-07T21:29:04.078Z,4.50
2022-10-07T21:31:31.314Z,4.40
2022-10-07T21:33:59.382Z,4.47
2022-10-07T21:36:26.201Z,4.05
2022-10-07T21:38:58.162Z,4.38
2022-10-07T21:41:25.939Z,4.30
2022-10-07T21:43:54.180Z,5.40
2022-10-07T21:46:21.259Z,4.43
2022-10-07T21:48:47.916Z,3.63
2022-10-07T21:51:14.484Z,4.95
2022-10-07T21:53:40.768Z,3.97
2022-10-07T21:56:08.415Z,4.45
2022-10-07T21:58:35.780Z,4.20
2022-10-07T22:01:05.755Z,4.25
2022-10-07T22:03:32.046Z,4.45
2022-10-07T22:06:06.370Z,4.97
2022-10-07T22:08:35.622Z,4.17
2022-10-07T22:11:09.480Z,3.58
2022-10-07T22:13:37.653Z,4.20
2022-10-07T22:16:05.267Z,4.90
2022-10-07T22:18:35.647Z,5.00
2022-10-07T22:21:03.486Z,4.88
2022-10-07T22:23:30.219Z,4.25
2022-10-07T22:26:03.196Z,4.28
2022-10-07T22:28:29.940Z,5.28
2022-10-07T22:30:56.291Z,4.75
2022-10-07T22:33:22.603Z,5.28
2022-10-07T22:35:48.899Z,4.20
2022-10-07T22:38:15.150Z,3.75
2022-10-07T22:40:41.431Z,4.45
2022-10-07T22:43:08.583Z,4.13
2022-10-07T22:45:36.212Z,5.60
2022-10-07T22:48:05.366Z,4.22
2022-10-07T22:50:31.910Z,4.25
2022-10-07T22:52:58.219Z,4.20
2022-10-07T22:55:24.543Z,4.35
2022-10-07T22:57:50.999Z,3.90
2022-10-07T23:00:17.448Z,4.72
2022-10-07T23:02:44.569Z,4.35
2022-10-07T23:05:11.127Z,4.15
2022-10-07T23:07:37.519Z,4.15
2022-10-07T23:10:03.926Z,5.18
2022-10-07T23:12:30.227Z,4.78
2022-10-07T23:14:56.496Z,4.47
2022-10-07T23:17:22.816Z,3.95
2022-10-07T23:19:49.091Z,5.07
2022-10-07T23:22:15.410Z,4.50
2022-10-07T23:24:41.686Z,5.88
2022-10-07T23:27:08.117Z,4.72
2022-10-07T23:29:34.384Z,5.00
2022-10-07T23:32:00.728Z,4.65
2022-10-07T23:34:27.387Z,5.50
2022-10-07T23:36:55.111Z,4.85
2022-10-07T23:39:22.297Z,5.30
2022-10-07T23:41:48.908Z,5.35
2022-10-07T23:44:15.208Z,6.30
2022-10-07T23:46:41.505Z,4.70
2022-10-07T23:49:07.842Z,5.57
2022-10-07T23:51:34.251Z,5.70
2022-10-07T23:54:02.824Z,5.43
2022-10-07T23:56:29.582Z,5.07
2022-10-07T23:58:55.860Z,5.32
